Time;durP1;ratioP1;P1;durP2;ratioP2;P2;SDS_P1;SDS_P2;PMS_P1;PMS_P2;Temp;Humidity;BMP_temperature;BMP_pressure;BME280_temperature;BME280_humidity;BME280_pressure;Samples;Min_cycle;Max_cycle;Signal;HPM_P1;HPM_P2
2022/01/23 09:21:52;;;;;;;11.77;7.90;;;2.40;99.90;;;;;;5141879;27;20286;-80
2022/01/23 09:24:19;;;;;;;13.53;8.00;;;2.50;99.90;;;;;;5142804;28;20400;-80
2022/01/23 09:26:52;;;;;;;11.60;7.47;;;2.50;99.90;;;;;;5128405;28;20428;-80
2022/01/23 09:29:25;;;;;;;11.10;8.17;;;2.60;99.90;;;;;;5141236;28;20818;-80
2022/01/23 09:31:52;;;;;;;10.73;7.00;;;2.60;99.90;;;;;;5141624;27;20147;-79
2022/01/23 09:34:27;;;;;;;12.80;7.17;;;2.60;99.90;;;;;;5138842;28;20312;-80
2022/01/23 09:36:55;;;;;;;12.53;7.73;;;2.60;99.90;;;;;;5138157;28;20511;-79
2022/01/23 09:39:21;;;;;;;8.17;6.13;;;2.60;99.90;;;;;;5138001;28;20782;-79
2022/01/23 09:41:51;;;;;;;8.07;5.53;;;2.60;99.90;;;;;;5137985;27;20181;-80
2022/01/23 09:44:18;;;;;;;8.43;5.63;;;2.70;99.90;;;;;;5137259;28;20185;-80
2022/01/23 09:46:46;;;;;;;8.00;5.40;;;2.80;99.90;;;;;;5137950;28;20217;-80
2022/01/23 09:49:14;;;;;;;8.07;5.50;;;2.80;99.90;;;;;;5138375;27;20441;-79
2022/01/23 09:51:46;;;;;;;8.43;6.27;;;2.90;99.90;;;;;;5136128;28;20223;-80
2022/01/23 09:54:13;;;;;;;10.17;7.27;;;2.80;99.90;;;;;;5139663;27;21070;-79
2022/01/23 09:56:41;;;;;;;9.17;6.27;;;2.90;99.90;;;;;;5137943;28;20205;-79
2022/01/23 09:59:13;;;;;;;10.17;6.70;;;3.10;99.90;;;;;;5138960;28;20212;-79
2022/01/23 10:01:41;;;;;;;9.43;6.80;;;3.10;99.90;;;;;;5138352;28;20285;-79
2022/01/23 10:04:07;;;;;;;7.60;5.87;;;3.10;99.90;;;;;;5136487;28;20590;-79
2022/01/23 10:06:33;;;;;;;6.87;5.60;;;3.10;99.90;;;;;;5138061;27;20219;-79
2022/01/23 10:09:00;;;;;;;7.50;5.83;;;3.10;99.90;;;;;;5137931;27;20171;-79
2022/01/23 10:11:29;;;;;;;6.53;5.67;;;3.20;99.90;;;;;;5136612;28;20224;-79
2022/01/23 10:13:55;;;;;;;7.13;5.83;;;3.20;99.90;;;;;;5138601;27;20163;-79
2022/01/23 10:16:21;;;;;;;9.10;7.10;;;3.40;99.90;;;;;;5138435;27;20246;-79
2022/01/23 10:18:48;;;;;;;14.23;9.47;;;3.40;99.90;;;;;;5140090;27;20167;-79
2022/01/23 10:21:14;;;;;;;10.83;8.10;;;3.30;99.90;;;;;;5138432;28;20313;-79
2022/01/23 10:23:41;;;;;;;12.60;8.60;;;3.40;99.90;;;;;;5137936;28;20172;-79
2022/01/23 10:26:06;;;;;;;10.37;7.43;;;3.40;99.90;;;;;;5138583;27;20250;-79
2022/01/23 10:28:34;;;;;;;8.23;6.37;;;3.40;99.90;;;;;;5138656;27;20182;-78
2022/01/23 10:31:05;;;;;;;10.43;6.63;;;3.50;99.90;;;;;;5137064;28;20260;-79
2022/01/23 10:33:36;;;;;;;6.73;5.50;;;3.40;99.90;;;;;;5125429;28;20230;-79
2022/01/23 10:36:05;;;;;;;6.30;5.13;;;3.40;99.90;;;;;;5124586;28;20208;-79
2022/01/23 10:38:54;;;;;;;8.03;6.47;;;3.30;99.90;;;;;;5125835;28;20207;-79
2022/01/23 10:49:50;;;;;;;8.40;7.50;;;3.10;99.90;;;;;;5124520;27;20624;-79
2022/01/23 10:52:37;;;;;;;8.97;6.93;;;3.10;99.90;;;;;;5123309;28;20228;-79
2022/01/23 10:55:27;;;;;;;7.03;5.50;;;3.10;99.90;;;;;;5123739;28;20668;-79
2022/01/23 10:57:56;;;;;;;6.93;5.17;;;3.10;99.90;;;;;;5122300;28;20188;-78
2022/01/23 11:00:37;;;;;;;8.67;7.57;;;3.10;99.90;;;;;;5124042;28;20274;-79
2022/01/23 11:03:18;;;;;;;9.70;7.13;;;3.10;99.90;;;;;;5124976;28;20183;-79
2022/01/23 11:05:44;;;;;;;8.07;7.10;;;3.10;99.90;;;;;;5125800;28;20167;-79
2022/01/23 11:08:27;;;;;;;10.00;7.17;;;2.90;99.90;;;;;;5130199;28;20191;-78
2022/01/23 11:11:07;;;;;;;8.73;6.90;;;3.00;99.90;;;;;;5130129;28;20164;-78
2022/01/23 11:19:24;;;;;;;8.47;7.27;;;3.20;99.90;;;;;;5121261;28;20340;-79
2022/01/23 11:21:54;;;;;;;13.60;8.93;;;3.00;99.90;;;;;;5118326;28;20190;-79
2022/01/23 11:24:33;;;;;;;16.43;9.57;;;2.90;99.90;;;;;;5120934;28;20168;-80
2022/01/23 11:27:01;;;;;;;15.43;10.67;;;3.00;99.90;;;;;;5119020;28;20227;-79
2022/01/23 11:29:27;;;;;;;11.30;8.67;;;3.00;99.90;;;;;;5118047;28;20560;-79
2022/01/23 11:31:53;;;;;;;10.60;8.40;;;3.20;99.90;;;;;;5117544;28;20176;-80
2022/01/23 11:34:21;;;;;;;10.87;8.60;;;3.10;99.90;;;;;;5120212;28;20172;-80
2022/01/23 11:36:47;;;;;;;10.27;7.63;;;3.00;99.90;;;;;;5122390;28;20183;-79
2022/01/23 11:39:26;;;;;;;12.03;8.97;;;2.90;99.90;;;;;;5119147;28;20175;-80
2022/01/23 11:50:51;;;;;;;10.27;7.83;;;2.90;99.90;;;;;;5077095;28;20629;-79
2022/01/23 11:56:36;;;;;;;11.63;8.00;;;5.90;99.90;;;;;;5118515;28;20435;-79
2022/01/23 11:59:13;;;;;;;17.37;10.67;;;3.00;99.90;;;;;;5119918;28;20169;-79
2022/01/23 12:01:40;;;;;;;12.03;8.43;;;3.00;99.90;;;;;;5116909;28;20198;-79
2022/01/23 12:04:06;;;;;;;11.80;8.27;;;3.00;99.90;;;;;;5115644;28;20174;-79
2022/01/23 12:06:32;;;;;;;11.47;8.30;;;3.10;99.90;;;;;;5118893;28;20200;-79
2022/01/23 12:09:13;;;;;;;10.87;8.30;;;3.20;99.90;;;;;;5117168;28;20175;-79
2022/01/23 12:17:00;;;;;;;12.73;8.43;;;3.30;99.90;;;;;;5085417;28;20213;-79
2022/01/23 12:19:31;;;;;;;12.73;8.63;;;3.30;99.90;;;;;;5116618;28;20634;-79
2022/01/23 12:22:17;;;;;;;12.17;9.20;;;3.20;99.90;;;;;;5114893;28;20618;-79
2022/01/23 12:24:49;;;;;;;12.30;8.20;;;3.20;99.90;;;;;;5115914;28;20654;-79
2022/01/23 12:27:23;;;;;;;10.00;8.30;;;3.20;99.90;;;;;;5114931;28;20228;-79
2022/01/23 12:29:50;;;;;;;12.30;8.73;;;3.30;99.90;;;;;;5115340;28;20252;-78
2022/01/23 12:32:30;;;;;;;15.33;9.97;;;3.30;99.90;;;;;;5116652;28;20175;-79
2022/01/23 12:34:58;;;;;;;12.67;9.70;;;3.20;99.90;;;;;;5115359;28;20170;-79
2022/01/23 12:37:25;;;;;;;14.00;9.53;;;3.10;99.90;;;;;;5115696;28;20186;-79
2022/01/23 12:40:31;;;;;;;12.83;8.90;;;3.40;99.90;;;;;;5115749;28;20249;-79
2022/01/23 12:43:12;;;;;;;10.90;8.53;;;3.30;99.90;;;;;;5114151;28;20171;-78
2022/01/23 12:45:48;;;;;;;13.33;9.50;;;3.30;99.90;;;;;;5112887;28;20261;-78
2022/01/23 12:48:26;;;;;;;12.80;9.43;;;3.30;99.90;;;;;;5113318;28;20272;-78
2022/01/23 12:51:07;;;;;;;11.47;8.73;;;3.40;99.90;;;;;;5112668;28;20231;-79
2022/01/23 12:53:58;;;;;;;10.47;8.27;;;3.40;99.90;;;;;;5113253;28;20174;-79
2022/01/23 12:56:34;;;;;;;16.33;10.27;;;3.50;99.90;;;;;;5113628;28;20277;-79
2022/01/23 12:59:09;;;;;;;13.13;10.17;;;3.40;99.90;;;;;;5115846;28;20614;-79
2022/01/23 13:01:37;;;;;;;10.50;7.90;;;3.40;99.90;;;;;;5116234;28;20189;-79
2022/01/23 13:04:06;;;;;;;11.13;8.13;;;3.40;99.90;;;;;;5116848;28;20217;-79
2022/01/23 13:06:51;;;;;;;13.63;8.73;;;3.30;99.90;;;;;;5115851;28;20283;-79
2022/01/23 13:09:27;;;;;;;13.63;9.27;;;3.30;99.90;;;;;;5115638;28;20275;-79
2022/01/23 13:12:09;;;;;;;13.07;9.13;;;3.50;99.90;;;;;;5114572;28;20230;-81
2022/01/23 13:31:50;;;;;;;9.30;7.07;;;3.20;99.90;;;;;;5116781;28;20176;-79
2022/01/23 13:34:35;;;;;;;9.97;7.67;;;3.20;99.90;;;;;;5116241;28;20687;-80
2022/01/23 13:37:03;;;;;;;8.93;6.30;;;3.10;99.90;;;;;;5115192;28;20196;-79
2022/01/23 13:39:38;;;;;;;8.93;6.40;;;3.00;99.90;;;;;;5114469;28;20545;-79
2022/01/23 13:42:11;;;;;;;9.67;7.13;;;3.10;99.90;;;;;;5115262;28;20166;-80
2022/01/23 13:53:24;;;;;;;10.10;7.00;;;3.00;99.90;;;;;;5073072;28;20175;-79
2022/01/23 13:58:39;;;;;;;10.90;7.70;;;3.10;99.90;;;;;;5117253;28;20189;-79
2022/01/23 14:03:53;;;;;;;10.97;6.87;;;3.00;99.90;;;;;;5116568;28;20265;-79
2022/01/23 14:06:19;;;;;;;10.57;7.60;;;3.00;99.90;;;;;;5115820;28;20200;-79
2022/01/23 14:09:05;;;;;;;8.97;6.50;;;3.00;99.90;;;;;;5121586;28;20169;-79
2022/01/23 14:11:31;;;;;;;10.60;6.93;;;3.10;99.90;;;;;;5118634;28;20633;-78
2022/01/23 14:14:16;;;;;;;8.53;6.17;;;3.10;99.90;;;;;;5119875;28;20196;-79
2022/01/23 14:16:43;;;;;;;10.67;5.80;;;3.10;99.90;;;;;;5122129;28;20677;-79
2022/01/23 14:19:18;;;;;;;10.37;6.47;;;3.00;99.90;;;;;;5123960;28;20534;-79
2022/01/23 14:21:46;;;;;;;9.50;7.00;;;2.80;99.90;;;;;;5118509;28;20228;-78
2022/01/23 14:24:18;;;;;;;11.03;8.03;;;2.60;99.90;;;;;;5118924;28;20196;-79
2022/01/23 14:27:02;;;;;;;12.43;8.83;;;2.70;99.90;;;;;;5117326;28;20195;-79
2022/01/23 14:29:30;;;;;;;11.97;8.03;;;2.50;99.90;;;;;;5118784;28;20611;-79
2022/01/23 14:32:15;;;;;;;14.30;8.20;;;2.60;99.90;;;;;;5118291;28;20257;-79
2022/01/23 14:34:41;;;;;;;12.87;9.50;;;2.50;99.90;;;;;;5118672;28;20183;-79
2022/01/23 14:37:07;;;;;;;15.23;10.40;;;2.50;99.90;;;;;;5117193;28;20247;-79
2022/01/23 14:39:35;;;;;;;13.87;9.87;;;2.50;99.90;;;;;;5117293;28;20179;-79
2022/01/23 14:42:12;;;;;;;16.23;9.97;;;2.50;99.90;;;;;;5118542;28;20172;-78
2022/01/23 14:44:38;;;;;;;17.87;11.80;;;2.40;99.90;;;;;;5117750;28;20210;-79
2022/01/23 14:47:04;;;;;;;16.33;10.60;;;2.30;99.90;;;;;;5118549;28;20643;-79
2022/01/23 14:49:31;;;;;;;18.70;11.73;;;2.50;99.90;;;;;;5118416;28;20212;-79
2022/01/23 14:52:01;;;;;;;16.63;11.37;;;2.50;99.90;;;;;;5121056;28;20173;-78
2022/01/23 14:54:30;;;;;;;15.40;10.80;;;2.40;99.90;;;;;;5123165;28;20217;-79
2022/01/23 14:57:01;;;;;;;16.50;11.03;;;2.30;99.90;;;;;;5120212;28;20680;-79
2022/01/23 14:59:30;;;;;;;16.60;10.13;;;2.40;99.90;;;;;;5116834;28;20651;-79
2022/01/23 15:01:55;;;;;;;17.17;11.53;;;2.30;99.90;;;;;;5117977;28;20234;-79
2022/01/23 15:04:23;;;;;;;17.83;11.63;;;2.40;99.90;;;;;;5117407;28;20173;-78
2022/01/23 15:06:52;;;;;;;18.07;10.43;;;2.30;99.90;;;;;;5121465;28;20675;-78
2022/01/23 15:09:19;;;;;;;35.40;17.23;;;2.40;99.90;;;;;;5122645;27;20168;-78
2022/01/23 15:11:44;;;;;;;54.13;22.67;;;2.30;99.90;;;;;;5120109;28;20229;-79
2022/01/23 15:14:12;;;;;;;39.90;17.53;;;2.30;99.90;;;;;;5116729;28;20178;-78
2022/01/23 15:16:39;;;;;;;41.27;19.97;;;2.30;99.90;;;;;;5117785;28;20192;-78
2022/01/23 15:19:07;;;;;;;38.27;17.60;;;2.20;99.90;;;;;;5117774;28;20169;-78
2022/01/23 15:21:34;;;;;;;24.60;13.73;;;2.20;99.90;;;;;;5116378;28;20208;-78
2022/01/23 15:23:59;;;;;;;18.73;11.20;;;2.10;99.90;;;;;;5117552;28;20188;-78
2022/01/23 15:26:28;;;;;;;17.30;10.47;;;2.20;99.90;;;;;;5115394;28;20193;-78
2022/01/23 15:28:54;;;;;;;14.83;9.93;;;2.20;99.90;;;;;;5116418;28;20205;-78
2022/01/23 15:31:20;;;;;;;15.43;10.47;;;2.20;99.90;;;;;;5117496;27;20173;-78
2022/01/23 15:33:46;;;;;;;16.37;10.00;;;2.20;99.90;;;;;;5117034;28;20191;-78
2022/01/23 15:36:12;;;;;;;13.27;9.57;;;2.10;99.90;;;;;;5116918;28;20560;-79
2022/01/23 15:38:42;;;;;;;16.07;8.80;;;2.10;99.90;;;;;;5117300;28;20194;-78
2022/01/23 15:41:08;;;;;;;18.83;11.03;;;2.10;99.90;;;;;;5115866;28;20198;-78
2022/01/23 15:43:34;;;;;;;17.40;11.27;;;2.00;99.90;;;;;;5116060;28;20183;-78
2022/01/23 15:46:00;;;;;;;14.00;10.03;;;2.20;99.90;;;;;;5117320;28;20172;-78
2022/01/23 15:48:30;;;;;;;13.63;9.53;;;2.10;99.90;;;;;;5117334;28;20175;-78
2022/01/23 15:50:56;;;;;;;14.90;9.53;;;2.00;99.90;;;;;;5116174;28;20186;-78
2022/01/23 15:53:22;;;;;;;15.30;9.60;;;2.00;99.90;;;;;;5117276;28;20178;-78
2022/01/23 15:55:48;;;;;;;15.03;10.27;;;2.00;99.90;;;;;;5115963;28;20181;-78
2022/01/23 15:58:14;;;;;;;22.50;9.60;;;2.00;99.90;;;;;;5115875;28;20203;-78
2022/01/23 16:00:39;;;;;;;17.00;10.23;;;1.90;99.90;;;;;;5117349;28;20281;-78
2022/01/23 16:03:05;;;;;;;14.63;10.27;;;1.90;99.90;;;;;;5117230;28;20175;-77
2022/01/23 16:05:31;;;;;;;13.47;9.23;;;1.80;99.90;;;;;;5116786;28;20548;-78
2022/01/23 16:07:56;;;;;;;12.80;9.03;;;1.80;99.90;;;;;;5114946;28;20196;-78
2022/01/23 16:10:22;;;;;;;15.13;9.17;;;1.80;99.90;;;;;;5116339;28;20189;-78
2022/01/23 16:12:48;;;;;;;16.50;9.53;;;1.80;99.90;;;;;;5116753;28;20177;-78
2022/01/23 16:15:17;;;;;;;13.93;10.10;;;3.40;99.90;;;;;;5115361;28;20176;-78
2022/01/23 16:17:45;;;;;;;14.87;9.07;;;2.40;99.90;;;;;;5117606;28;20724;-79
2022/01/23 16:20:12;;;;;;;15.23;9.37;;;1.70;99.90;;;;;;5114500;28;20342;-78
2022/01/23 16:22:39;;;;;;;13.50;9.70;;;1.70;99.90;;;;;;5117293;28;20179;-78
2022/01/23 16:25:06;;;;;;;14.43;9.83;;;1.60;99.90;;;;;;5116630;28;20526;-78
2022/01/23 16:27:31;;;;;;;19.47;11.90;;;1.70;99.90;;;;;;5114962;28;20196;-78
2022/01/23 16:29:57;;;;;;;19.33;11.30;;;1.60;99.90;;;;;;5115721;28;20192;-78
2022/01/23 16:32:23;;;;;;;16.27;10.43;;;1.80;99.90;;;;;;5122933;28;20180;-78
2022/01/23 16:34:48;;;;;;;14.47;9.67;;;1.70;99.90;;;;;;5115416;28;20191;-78
2022/01/23 16:37:14;;;;;;;14.17;9.00;;;1.70;99.90;;;;;;5114583;28;20734;-78
2022/01/23 16:39:40;;;;;;;14.50;9.93;;;1.70;99.90;;;;;;5115517;27;20512;-78
2022/01/23 16:42:06;;;;;;;13.43;8.97;;;2.70;99.90;;;;;;5114934;28;20170;-78
2022/01/23 16:44:32;;;;;;;14.93;9.17;;;1.60;99.90;;;;;;5113666;28;20176;-78
2022/01/23 16:46:57;;;;;;;16.97;9.93;;;1.70;99.90;;;;;;5115019;28;20195;-77
2022/01/23 16:49:23;;;;;;;17.10;11.57;;;1.60;99.90;;;;;;5116017;28;20203;-78
2022/01/23 16:51:49;;;;;;;15.03;10.43;;;1.60;99.90;;;;;;5113517;28;20179;-78
2022/01/23 16:54:16;;;;;;;16.30;10.27;;;1.60;99.90;;;;;;5112765;28;20191;-77
2022/01/23 16:56:43;;;;;;;14.00;9.40;;;1.50;99.90;;;;;;5114584;28;20739;-78
2022/01/23 16:59:10;;;;;;;16.07;9.43;;;1.40;99.90;;;;;;5113050;28;20245;-78
2022/01/23 17:01:36;;;;;;;17.27;9.53;;;1.40;99.90;;;;;;5113066;28;20268;-78
2022/01/23 17:04:03;;;;;;;14.33;9.53;;;1.30;99.90;;;;;;5114534;28;20254;-78
2022/01/23 17:06:31;;;;;;;15.13;8.63;;;1.30;99.90;;;;;;5114144;28;20195;-78
2022/01/23 17:08:58;;;;;;;15.90;10.03;;;1.30;99.90;;;;;;5120708;28;20172;-78
2022/01/23 17:11:24;;;;;;;37.00;17.23;;;1.30;99.90;;;;;;5120480;28;20204;-78
2022/01/23 17:13:50;;;;;;;19.47;10.83;;;1.20;99.90;;;;;;5120157;28;20179;-78
2022/01/23 17:16:16;;;;;;;18.20;10.90;;;1.10;99.90;;;;;;5116714;28;20636;-78
2022/01/23 17:18:43;;;;;;;22.87;13.63;;;1.00;99.90;;;;;;5116596;28;20175;-78
2022/01/23 17:21:09;;;;;;;23.77;15.17;;;;;;;;;;5116269;28;20203;-78
2022/01/23 17:23:35;;;;;;;33.47;18.50;;;1.10;99.90;;;;;;5115960;28;20179;-78
2022/01/23 17:26:02;;;;;;;29.33;15.23;;;;;;;;;;5116217;28;20176;-78
2022/01/23 17:28:27;;;;;;;17.77;10.53;;;1.00;99.90;;;;;;5116713;28;20632;-78
2022/01/23 17:30:53;;;;;;;20.83;11.77;;;;;;;;;;5114870;28;20185;-79
2022/01/23 17:33:19;;;;;;;18.47;10.67;;;;;;;;;;5116240;28;20215;-78
2022/01/23 17:35:45;;;;;;;18.87;11.60;;;1.00;99.90;;;;;;5116549;28;20187;-79
2022/01/23 17:38:12;;;;;;;23.93;12.73;;;1.00;99.90;;;;;;5115235;28;20202;-78
2022/01/23 17:40:38;;;;;;;23.87;12.63;;;1.00;99.90;;;;;;5116443;28;20658;-78
2022/01/23 17:43:04;;;;;;;20.10;12.20;;;;;;;;;;5118091;28;20176;-79
2022/01/23 17:45:39;;;;;;;16.50;10.20;;;0.90;99.90;;;;;;5121245;28;20213;-79
2022/01/23 17:48:30;;;;;;;20.13;11.87;;;;;;;;;;5119345;28;20199;-78
2022/01/23 17:50:56;;;;;;;17.47;11.00;;;1.00;99.90;;;;;;5119331;28;20694;-78
2022/01/23 17:53:23;;;;;;;19.47;11.67;;;1.10;99.90;;;;;;5119242;28;20183;-78
2022/01/23 17:55:49;;;;;;;18.83;12.27;;;;;;;;;;5118869;28;20179;-78
2022/01/23 17:58:15;;;;;;;23.93;12.97;;;1.20;99.90;;;;;;5120713;28;20184;-78
2022/01/23 18:00:41;;;;;;;16.67;10.97;;;;;;;;;;5122727;28;20661;-78
2022/01/23 18:03:07;;;;;;;18.10;10.47;;;0.80;99.90;;;;;;5121479;28;20175;-78
2022/01/23 18:05:34;;;;;;;15.50;10.10;;;;;;;;;;5122851;28;20539;-78
2022/01/23 18:08:04;;;;;;;17.43;9.93;;;0.90;99.90;;;;;;5122251;28;20198;-79
2022/01/23 18:10:31;;;;;;;17.10;9.37;;;;;;;;;;5123203;28;20175;-78
2022/01/23 18:12:57;;;;;;;15.23;10.07;;;0.90;99.90;;;;;;5121812;28;20651;-79
2022/01/23 18:15:23;;;;;;;18.13;10.53;;;0.80;99.90;;;;;;5122701;28;20202;-79
2022/01/23 18:17:50;;;;;;;14.73;9.17;;;0.60;99.90;;;;;;5123595;28;20203;-79
2022/01/23 18:20:17;;;;;;;14.93;9.27;;;0.90;99.90;;;;;;5123051;28;20571;-79
2022/01/23 18:22:43;;;;;;;15.67;9.53;;;;;;;;;;5123544;28;20180;-78
2022/01/23 18:25:09;;;;;;;18.80;10.47;;;;;;;;;;5122289;28;20409;-79
2022/01/23 18:27:35;;;;;;;23.03;11.90;;;;;;;;;;5122211;28;20649;-79
2022/01/23 18:30:01;;;;;;;22.67;14.33;;;;;;;;;;5121340;28;20201;-78
2022/01/23 18:32:27;;;;;;;18.93;11.17;;;;;;;;;;5121018;28;20217;-78
2022/01/23 18:34:53;;;;;;;16.10;10.10;;;0.70;99.90;;;;;;5121870;28;20183;-79
2022/01/23 18:37:19;;;;;;;19.30;11.37;;;0.60;99.90;;;;;;5121974;28;20200;-79
2022/01/23 18:39:45;;;;;;;19.10;10.50;;;;;;;;;;5122624;28;20176;-79
2022/01/23 18:42:11;;;;;;;15.57;10.00;;;;;;;;;;5128688;28;20180;-79
2022/01/23 18:44:37;;;;;;;17.87;9.80;;;;;;;;;;5123382;28;20217;-79
2022/01/23 18:47:04;;;;;;;16.47;10.13;;;0.40;99.90;;;;;;5120923;28;20203;-79
2022/01/23 18:49:30;;;;;;;14.97;9.33;;;;;;;;;;5121151;28;20637;-79
2022/01/23 18:52:00;;;;;;;17.90;10.37;;;;;;;;;;5126162;28;20177;-78
2022/01/23 18:56:59;;;;;;;19.53;10.47;;;;;;;;;;5126615;28;20221;-78
2022/01/23 18:59:26;;;;;;;16.40;10.10;;;0.20;99.90;;;;;;5128775;28;20186;-78
2022/01/23 19:01:56;;;;;;;27.03;14.77;;;0.30;99.90;;;;;;5121958;28;20579;-79
2022/01/23 19:04:25;;;;;;;50.93;22.10;;;0.50;99.90;;;;;;5120949;28;20270;-81
2022/01/23 19:06:57;;;;;;;33.43;17.47;;;;;;;;;;5118449;28;20192;-79
2022/01/23 19:09:31;;;;;;;39.30;17.03;;;0.50;99.90;;;;;;5118815;28;20173;-79
2022/01/23 19:12:01;;;;;;;22.93;13.20;;;;;;;;;;5119034;28;20200;-79
